sensor_id;sensor_type;location;lat;lon;timestamp;P1;durP1;ratioP1;P2;durP2;ratioP2
12980;SDS011;6555;50.468;8.480;2022-12-18T00:02:17;1.70;;;1.60;;
12980;SDS011;6555;50.468;8.480;2022-12-18T00:07:20;3.40;;;2.30;;
12980;SDS011;6555;50.468;8.480;2022-12-18T00:12:23;2.07;;;1.67;;
12980;SDS011;6555;50.468;8.480;2022-12-18T00:17:27;2.00;;;1.63;;
12980;SDS011;6555;50.468;8.480;2022-12-18T00:22:30;1.40;;;1.30;;
12980;SDS011;6555;50.468;8.480;2022-12-18T00:27:33;1.20;;;1.10;;
12980;SDS011;6555;50.468;8.480;2022-12-18T00:32:38;1.67;;;1.30;;
12980;SDS011;6555;50.468;8.480;2022-12-18T00:37:41;1.50;;;1.30;;
12980;SDS011;6555;50.468;8.480;2022-12-18T00:42:45;2.60;;;2.00;;
12980;SDS011;6555;50.468;8.480;2022-12-18T00:48:02;2.40;;;1.93;;
12980;SDS011;6555;50.468;8.480;2022-12-18T00:53:05;2.73;;;1.90;;
12980;SDS011;6555;50.468;8.480;2022-12-18T00:58:08;1.80;;;1.50;;
12980;SDS011;6555;50.468;8.480;2022-12-18T01:03:13;1.90;;;1.43;;
12980;SDS011;6555;50.468;8.480;2022-12-18T01:08:18;2.80;;;1.77;;
12980;SDS011;6555;50.468;8.480;2022-12-18T01:13:21;1.93;;;1.80;;
12980;SDS011;6555;50.468;8.480;2022-12-18T01:18:26;2.50;;;1.57;;
12980;SDS011;6555;50.468;8.480;2022-12-18T01:23:32;1.20;;;1.10;;
12980;SDS011;6555;50.468;8.480;2022-12-18T01:28:36;2.17;;;1.47;;
12980;SDS011;6555;50.468;8.480;2022-12-18T01:33:42;2.10;;;1.60;;
12980;SDS011;6555;50.468;8.480;2022-12-18T01:38:45;1.30;;;1.17;;
12980;SDS011;6555;50.468;8.480;2022-12-18T01:43:50;1.47;;;1.30;;
12980;SDS011;6555;50.468;8.480;2022-12-18T01:48:57;1.97;;;1.47;;
12980;SDS011;6555;50.468;8.480;2022-12-18T01:54:02;1.47;;;1.30;;
12980;SDS011;6555;50.468;8.480;2022-12-18T01:59:06;1.73;;;1.60;;
12980;SDS011;6555;50.468;8.480;2022-12-18T02:04:21;1.40;;;1.30;;
12980;SDS011;6555;50.468;8.480;2022-12-18T02:09:26;1.70;;;1.40;;
12980;SDS011;6555;50.468;8.480;2022-12-18T02:14:34;1.67;;;1.50;;
12980;SDS011;6555;50.468;8.480;2022-12-18T02:19:46;2.23;;;1.40;;
12980;SDS011;6555;50.468;8.480;2022-12-18T02:25:00;1.93;;;1.40;;
12980;SDS011;6555;50.468;8.480;2022-12-18T02:30:17;2.20;;;1.60;;
12980;SDS011;6555;50.468;8.480;2022-12-18T02:35:22;1.23;;;1.10;;
12980;SDS011;6555;50.468;8.480;2022-12-18T02:40:30;1.03;;;0.93;;
12980;SDS011;6555;50.468;8.480;2022-12-18T02:45:35;1.50;;;1.40;;
12980;SDS011;6555;50.468;8.480;2022-12-18T02:50:50;1.93;;;1.53;;
12980;SDS011;6555;50.468;8.480;2022-12-18T02:56:00;1.63;;;1.53;;
12980;SDS011;6555;50.468;8.480;2022-12-18T03:01:10;1.40;;;1.30;;
12980;SDS011;6555;50.468;8.480;2022-12-18T03:06:18;2.93;;;1.70;;
12980;SDS011;6555;50.468;8.480;2022-12-18T03:11:26;2.53;;;1.90;;
12980;SDS011;6555;50.468;8.480;2022-12-18T03:16:57;1.93;;;1.80;;
12980;SDS011;6555;50.468;8.480;2022-12-18T03:22:05;2.33;;;1.80;;
12980;SDS011;6555;50.468;8.480;2022-12-18T03:27:18;3.73;;;1.93;;
12980;SDS011;6555;50.468;8.480;2022-12-18T03:32:28;1.57;;;1.40;;
12980;SDS011;6555;50.468;8.480;2022-12-18T03:37:36;2.00;;;1.47;;
12980;SDS011;6555;50.468;8.480;2022-12-18T03:42:43;1.60;;;1.30;;
12980;SDS011;6555;50.468;8.480;2022-12-18T03:47:57;1.77;;;1.47;;
12980;SDS011;6555;50.468;8.480;2022-12-18T03:53:10;2.30;;;1.73;;
12980;SDS011;6555;50.468;8.480;2022-12-18T03:58:22;1.50;;;1.10;;
12980;SDS011;6555;50.468;8.480;2022-12-18T04:03:43;1.30;;;1.20;;
12980;SDS011;6555;50.468;8.480;2022-12-18T04:08:48;1.80;;;1.70;;
12980;SDS011;6555;50.468;8.480;2022-12-18T04:13:56;1.90;;;1.67;;
12980;SDS011;6555;50.468;8.480;2022-12-18T04:19:01;1.40;;;1.30;;
12980;SDS011;6555;50.468;8.480;2022-12-18T04:24:09;1.70;;;1.60;;
12980;SDS011;6555;50.468;8.480;2022-12-18T04:29:19;1.20;;;1.10;;
12980;SDS011;6555;50.468;8.480;2022-12-18T04:34:23;1.50;;;1.40;;
12980;SDS011;6555;50.468;8.480;2022-12-18T04:39:28;3.03;;;2.03;;
12980;SDS011;6555;50.468;8.480;2022-12-18T04:44:35;2.40;;;1.37;;
12980;SDS011;6555;50.468;8.480;2022-12-18T04:49:40;1.87;;;1.40;;
12980;SDS011;6555;50.468;8.480;2022-12-18T04:54:43;2.33;;;1.80;;
12980;SDS011;6555;50.468;8.480;2022-12-18T04:59:46;1.83;;;1.73;;
12980;SDS011;6555;50.468;8.480;2022-12-18T05:04:50;1.80;;;1.43;;
12980;SDS011;6555;50.468;8.480;2022-12-18T05:09:54;2.23;;;1.57;;
12980;SDS011;6555;50.468;8.480;2022-12-18T05:14:57;1.93;;;1.53;;
12980;SDS011;6555;50.468;8.480;2022-12-18T05:20:02;1.67;;;1.33;;
12980;SDS011;6555;50.468;8.480;2022-12-18T05:25:05;1.93;;;1.70;;
12980;SDS011;6555;50.468;8.480;2022-12-18T05:30:10;1.90;;;1.40;;
12980;SDS011;6555;50.468;8.480;2022-12-18T05:35:15;1.63;;;1.53;;
12980;SDS011;6555;50.468;8.480;2022-12-18T05:40:18;1.50;;;1.23;;
12980;SDS011;6555;50.468;8.480;2022-12-18T05:45:21;1.53;;;1.40;;
12980;SDS011;6555;50.468;8.480;2022-12-18T05:50:25;2.63;;;1.53;;
12980;SDS011;6555;50.468;8.480;2022-12-18T05:55:34;1.93;;;1.60;;
12980;SDS011;6555;50.468;8.480;2022-12-18T06:00:39;1.53;;;1.17;;
12980;SDS011;6555;50.468;8.480;2022-12-18T06:05:44;2.20;;;1.50;;
12980;SDS011;6555;50.468;8.480;2022-12-18T06:10:49;1.80;;;1.30;;
12980;SDS011;6555;50.468;8.480;2022-12-18T06:15:54;2.30;;;1.57;;
12980;SDS011;6555;50.468;8.480;2022-12-18T06:20:58;2.07;;;1.83;;
12980;SDS011;6555;50.468;8.480;2022-12-18T06:26:03;1.73;;;1.23;;
12980;SDS011;6555;50.468;8.480;2022-12-18T06:31:07;3.00;;;2.17;;
12980;SDS011;6555;50.468;8.480;2022-12-18T06:36:13;1.57;;;1.23;;
12980;SDS011;6555;50.468;8.480;2022-12-18T06:41:16;2.57;;;1.83;;
12980;SDS011;6555;50.468;8.480;2022-12-18T06:46:21;3.50;;;2.37;;
12980;SDS011;6555;50.468;8.480;2022-12-18T06:51:25;2.93;;;1.90;;
12980;SDS011;6555;50.468;8.480;2022-12-18T06:56:28;3.20;;;2.40;;
12980;SDS011;6555;50.468;8.480;2022-12-18T07:01:31;2.80;;;1.43;;
12980;SDS011;6555;50.468;8.480;2022-12-18T07:06:36;2.60;;;1.60;;
12980;SDS011;6555;50.468;8.480;2022-12-18T07:11:39;2.37;;;1.83;;
12980;SDS011;6555;50.468;8.480;2022-12-18T07:16:42;4.10;;;2.53;;
12980;SDS011;6555;50.468;8.480;2022-12-18T07:21:46;2.53;;;2.23;;
12980;SDS011;6555;50.468;8.480;2022-12-18T07:26:49;3.60;;;2.13;;
12980;SDS011;6555;50.468;8.480;2022-12-18T07:31:52;3.20;;;2.53;;
12980;SDS011;6555;50.468;8.480;2022-12-18T07:36:56;3.00;;;2.10;;
12980;SDS011;6555;50.468;8.480;2022-12-18T07:41:59;4.53;;;3.37;;
12980;SDS011;6555;50.468;8.480;2022-12-18T07:47:22;3.93;;;2.20;;
12980;SDS011;6555;50.468;8.480;2022-12-18T07:52:26;2.37;;;1.50;;
12980;SDS011;6555;50.468;8.480;2022-12-18T07:57:29;2.97;;;2.20;;
12980;SDS011;6555;50.468;8.480;2022-12-18T08:02:50;2.87;;;2.13;;
12980;SDS011;6555;50.468;8.480;2022-12-18T08:07:57;2.97;;;1.90;;
12980;SDS011;6555;50.468;8.480;2022-12-18T08:13:00;2.20;;;1.67;;
12980;SDS011;6555;50.468;8.480;2022-12-18T08:18:05;2.40;;;1.47;;
12980;SDS011;6555;50.468;8.480;2022-12-18T08:23:15;2.30;;;1.77;;
12980;SDS011;6555;50.468;8.480;2022-12-18T08:28:18;2.40;;;1.50;;
12980;SDS011;6555;50.468;8.480;2022-12-18T08:33:22;2.13;;;1.80;;
12980;SDS011;6555;50.468;8.480;2022-12-18T08:38:27;2.93;;;2.43;;
12980;SDS011;6555;50.468;8.480;2022-12-18T08:43:32;2.47;;;2.23;;
12980;SDS011;6555;50.468;8.480;2022-12-18T08:48:52;3.03;;;2.27;;
12980;SDS011;6555;50.468;8.480;2022-12-18T08:53:57;4.77;;;3.17;;
12980;SDS011;6555;50.468;8.480;2022-12-18T08:59:00;7.40;;;3.90;;
12980;SDS011;6555;50.468;8.480;2022-12-18T09:04:03;4.33;;;2.80;;
12980;SDS011;6555;50.468;8.480;2022-12-18T09:09:10;4.83;;;3.00;;
12980;SDS011;6555;50.468;8.480;2022-12-18T09:14:13;4.00;;;2.93;;
12980;SDS011;6555;50.468;8.480;2022-12-18T09:19:16;4.63;;;3.13;;
12980;SDS011;6555;50.468;8.480;2022-12-18T09:24:20;6.17;;;3.07;;
12980;SDS011;6555;50.468;8.480;2022-12-18T09:29:23;4.57;;;3.47;;
12980;SDS011;6555;50.468;8.480;2022-12-18T09:34:27;6.50;;;4.17;;
12980;SDS011;6555;50.468;8.480;2022-12-18T09:39:31;5.43;;;3.67;;
12980;SDS011;6555;50.468;8.480;2022-12-18T09:44:35;3.27;;;2.43;;
12980;SDS011;6555;50.468;8.480;2022-12-18T09:49:46;5.33;;;3.37;;
12980;SDS011;6555;50.468;8.480;2022-12-18T09:54:53;4.27;;;2.93;;
12980;SDS011;6555;50.468;8.480;2022-12-18T10:00:03;4.87;;;3.47;;
12980;SDS011;6555;50.468;8.480;2022-12-18T10:05:20;3.87;;;2.93;;
12980;SDS011;6555;50.468;8.480;2022-12-18T10:10:34;3.73;;;2.50;;
12980;SDS011;6555;50.468;8.480;2022-12-18T10:15:46;3.60;;;2.37;;
12980;SDS011;6555;50.468;8.480;2022-12-18T10:21:00;4.90;;;3.60;;
12980;SDS011;6555;50.468;8.480;2022-12-18T10:26:13;5.37;;;3.63;;
12980;SDS011;6555;50.468;8.480;2022-12-18T10:31:17;7.20;;;4.70;;
12980;SDS011;6555;50.468;8.480;2022-12-18T10:36:24;7.07;;;5.03;;
12980;SDS011;6555;50.468;8.480;2022-12-18T10:41:29;7.10;;;4.53;;
12980;SDS011;6555;50.468;8.480;2022-12-18T10:46:33;8.13;;;5.23;;
12980;SDS011;6555;50.468;8.480;2022-12-18T10:51:36;9.97;;;6.47;;
12980;SDS011;6555;50.468;8.480;2022-12-18T10:56:41;9.20;;;6.63;;
12980;SDS011;6555;50.468;8.480;2022-12-18T11:01:47;14.00;;;10.10;;
12980;SDS011;6555;50.468;8.480;2022-12-18T11:06:57;13.30;;;7.90;;
12980;SDS011;6555;50.468;8.480;2022-12-18T11:12:03;15.00;;;8.37;;
12980;SDS011;6555;50.468;8.480;2022-12-18T11:17:18;9.00;;;5.57;;
12980;SDS011;6555;50.468;8.480;2022-12-18T11:22:28;13.63;;;7.90;;
12980;SDS011;6555;50.468;8.480;2022-12-18T11:27:33;13.73;;;8.20;;
12980;SDS011;6555;50.468;8.480;2022-12-18T11:32:37;12.10;;;7.97;;
12980;SDS011;6555;50.468;8.480;2022-12-18T11:37:43;17.10;;;11.37;;
12980;SDS011;6555;50.468;8.480;2022-12-18T11:42:53;12.33;;;7.93;;
12980;SDS011;6555;50.468;8.480;2022-12-18T11:48:01;15.33;;;9.47;;
12980;SDS011;6555;50.468;8.480;2022-12-18T11:53:09;14.60;;;9.93;;
12980;SDS011;6555;50.468;8.480;2022-12-18T11:58:17;22.43;;;12.53;;
12980;SDS011;6555;50.468;8.480;2022-12-18T12:03:39;26.17;;;14.13;;
12980;SDS011;6555;50.468;8.480;2022-12-18T12:09:03;22.40;;;14.30;;
12980;SDS011;6555;50.468;8.480;2022-12-18T12:14:22;21.60;;;13.03;;
12980;SDS011;6555;50.468;8.480;2022-12-18T12:19:37;20.30;;;12.23;;
12980;SDS011;6555;50.468;8.480;2022-12-18T12:24:49;18.77;;;10.67;;
12980;SDS011;6555;50.468;8.480;2022-12-18T12:30:04;16.20;;;10.33;;
12980;SDS011;6555;50.468;8.480;2022-12-18T12:35:24;20.60;;;12.33;;
12980;SDS011;6555;50.468;8.480;2022-12-18T12:40:36;24.53;;;13.90;;
12980;SDS011;6555;50.468;8.480;2022-12-18T12:46:03;19.13;;;11.17;;
12980;SDS011;6555;50.468;8.480;2022-12-18T12:51:10;17.20;;;10.77;;
12980;SDS011;6555;50.468;8.480;2022-12-18T12:56:18;24.13;;;14.47;;
12980;SDS011;6555;50.468;8.480;2022-12-18T13:01:27;26.87;;;16.13;;
12980;SDS011;6555;50.468;8.480;2022-12-18T13:06:40;14.13;;;8.97;;
12980;SDS011;6555;50.468;8.480;2022-12-18T13:11:48;8.33;;;6.37;;
12980;SDS011;6555;50.468;8.480;2022-12-18T13:22:35;20.53;;;12.37;;
12980;SDS011;6555;50.468;8.480;2022-12-18T13:28:00;20.13;;;12.00;;
12980;SDS011;6555;50.468;8.480;2022-12-18T13:44:38;16.83;;;9.07;;
12980;SDS011;6555;50.468;8.480;2022-12-18T13:49:44;20.77;;;12.67;;
12980;SDS011;6555;50.468;8.480;2022-12-18T13:54:50;28.10;;;15.30;;
12980;SDS011;6555;50.468;8.480;2022-12-18T13:59:56;30.57;;;17.03;;
12980;SDS011;6555;50.468;8.480;2022-12-18T14:05:01;29.80;;;15.37;;
12980;SDS011;6555;50.468;8.480;2022-12-18T14:10:11;36.53;;;17.17;;
12980;SDS011;6555;50.468;8.480;2022-12-18T14:15:39;24.53;;;13.73;;
12980;SDS011;6555;50.468;8.480;2022-12-18T14:20:45;16.40;;;9.50;;
12980;SDS011;6555;50.468;8.480;2022-12-18T14:25:53;13.77;;;8.33;;
12980;SDS011;6555;50.468;8.480;2022-12-18T14:31:02;19.17;;;10.67;;
12980;SDS011;6555;50.468;8.480;2022-12-18T14:36:13;24.80;;;13.03;;
12980;SDS011;6555;50.468;8.480;2022-12-18T14:41:19;17.50;;;9.83;;
12980;SDS011;6555;50.468;8.480;2022-12-18T14:46:31;18.73;;;12.07;;
12980;SDS011;6555;50.468;8.480;2022-12-18T14:51:38;16.07;;;10.87;;
12980;SDS011;6555;50.468;8.480;2022-12-18T14:56:43;23.87;;;14.17;;
12980;SDS011;6555;50.468;8.480;2022-12-18T15:01:51;19.33;;;11.20;;
12980;SDS011;6555;50.468;8.480;2022-12-18T15:07:04;27.27;;;14.53;;
12980;SDS011;6555;50.468;8.480;2022-12-18T15:12:28;13.93;;;8.17;;
12980;SDS011;6555;50.468;8.480;2022-12-18T15:17:36;9.70;;;6.17;;
12980;SDS011;6555;50.468;8.480;2022-12-18T15:22:41;8.47;;;5.50;;
12980;SDS011;6555;50.468;8.480;2022-12-18T15:27:44;14.53;;;8.60;;
12980;SDS011;6555;50.468;8.480;2022-12-18T15:32:51;15.33;;;9.13;;
12980;SDS011;6555;50.468;8.480;2022-12-18T15:37:57;19.27;;;11.40;;
12980;SDS011;6555;50.468;8.480;2022-12-18T15:43:00;14.97;;;9.43;;
12980;SDS011;6555;50.468;8.480;2022-12-18T15:48:22;20.87;;;11.73;;
12980;SDS011;6555;50.468;8.480;2022-12-18T15:53:27;18.47;;;11.23;;
12980;SDS011;6555;50.468;8.480;2022-12-18T15:58:34;10.40;;;6.80;;
12980;SDS011;6555;50.468;8.480;2022-12-18T16:03:37;9.13;;;5.87;;
12980;SDS011;6555;50.468;8.480;2022-12-18T16:08:42;11.33;;;6.70;;
12980;SDS011;6555;50.468;8.480;2022-12-18T16:13:46;13.50;;;7.53;;
12980;SDS011;6555;50.468;8.480;2022-12-18T16:18:49;12.80;;;8.33;;
12980;SDS011;6555;50.468;8.480;2022-12-18T16:23:53;9.53;;;6.47;;
12980;SDS011;6555;50.468;8.480;2022-12-18T16:28:57;7.30;;;4.87;;
12980;SDS011;6555;50.468;8.480;2022-12-18T16:34:10;14.20;;;8.63;;
12980;SDS011;6555;50.468;8.480;2022-12-18T16:39:17;13.23;;;7.10;;
12980;SDS011;6555;50.468;8.480;2022-12-18T16:44:20;14.53;;;9.20;;
12980;SDS011;6555;50.468;8.480;2022-12-18T16:49:24;14.20;;;8.50;;
12980;SDS011;6555;50.468;8.480;2022-12-18T16:54:28;15.17;;;9.10;;
12980;SDS011;6555;50.468;8.480;2022-12-18T16:59:31;10.03;;;6.27;;
12980;SDS011;6555;50.468;8.480;2022-12-18T17:04:34;11.00;;;7.10;;
12980;SDS011;6555;50.468;8.480;2022-12-18T17:09:39;10.63;;;6.40;;
12980;SDS011;6555;50.468;8.480;2022-12-18T17:14:42;16.13;;;8.70;;
12980;SDS011;6555;50.468;8.480;2022-12-18T17:19:47;13.40;;;8.40;;
12980;SDS011;6555;50.468;8.480;2022-12-18T17:24:51;19.57;;;11.27;;
12980;SDS011;6555;50.468;8.480;2022-12-18T17:29:54;22.77;;;13.77;;
12980;SDS011;6555;50.468;8.480;2022-12-18T17:34:57;19.97;;;12.23;;
12980;SDS011;6555;50.468;8.480;2022-12-18T17:40:10;20.23;;;11.60;;
12980;SDS011;6555;50.468;8.480;2022-12-18T17:45:13;21.67;;;13.27;;
12980;SDS011;6555;50.468;8.480;2022-12-18T17:50:16;21.33;;;13.27;;
12980;SDS011;6555;50.468;8.480;2022-12-18T17:55:21;31.80;;;17.03;;
12980;SDS011;6555;50.468;8.480;2022-12-18T18:00:24;23.67;;;14.03;;
12980;SDS011;6555;50.468;8.480;2022-12-18T18:05:27;28.03;;;16.03;;
12980;SDS011;6555;50.468;8.480;2022-12-18T18:10:34;24.27;;;12.90;;
12980;SDS011;6555;50.468;8.480;2022-12-18T18:15:38;19.17;;;11.43;;
12980;SDS011;6555;50.468;8.480;2022-12-18T18:20:49;21.60;;;11.93;;
12980;SDS011;6555;50.468;8.480;2022-12-18T18:25:54;20.97;;;12.80;;
12980;SDS011;6555;50.468;8.480;2022-12-18T18:30:57;29.77;;;15.83;;
12980;SDS011;6555;50.468;8.480;2022-12-18T18:36:09;20.80;;;11.97;;
12980;SDS011;6555;50.468;8.480;2022-12-18T18:41:12;20.37;;;12.03;;
12980;SDS011;6555;50.468;8.480;2022-12-18T18:46:16;22.30;;;12.67;;
12980;SDS011;6555;50.468;8.480;2022-12-18T18:51:21;16.73;;;9.33;;
12980;SDS011;6555;50.468;8.480;2022-12-18T18:56:24;25.67;;;14.60;;
12980;SDS011;6555;50.468;8.480;2022-12-18T19:01:48;27.67;;;15.77;;
12980;SDS011;6555;50.468;8.480;2022-12-18T19:06:54;19.83;;;12.13;;
12980;SDS011;6555;50.468;8.480;2022-12-18T19:11:57;20.57;;;12.23;;
12980;SDS011;6555;50.468;8.480;2022-12-18T19:17:17;19.67;;;11.63;;
12980;SDS011;6555;50.468;8.480;2022-12-18T19:22:29;16.87;;;9.90;;
12980;SDS011;6555;50.468;8.480;2022-12-18T19:27:32;22.40;;;13.63;;
12980;SDS011;6555;50.468;8.480;2022-12-18T19:32:38;22.63;;;13.33;;
12980;SDS011;6555;50.468;8.480;2022-12-18T19:37:43;26.80;;;15.43;;
12980;SDS011;6555;50.468;8.480;2022-12-18T19:42:46;26.30;;;15.77;;
12980;SDS011;6555;50.468;8.480;2022-12-18T19:47:49;17.07;;;10.80;;
12980;SDS011;6555;50.468;8.480;2022-12-18T19:52:53;21.90;;;12.57;;
12980;SDS011;6555;50.468;8.480;2022-12-18T19:57:56;12.77;;;8.30;;
12980;SDS011;6555;50.468;8.480;2022-12-18T20:02:59;12.13;;;7.53;;
12980;SDS011;6555;50.468;8.480;2022-12-18T20:08:17;18.20;;;11.00;;
12980;SDS011;6555;50.468;8.480;2022-12-18T20:13:20;13.90;;;7.87;;
12980;SDS011;6555;50.468;8.480;2022-12-18T20:18:23;15.53;;;9.53;;
12980;SDS011;6555;50.468;8.480;2022-12-18T20:25:46;17.23;;;10.83;;
12980;SDS011;6555;50.468;8.480;2022-12-18T20:30:49;19.37;;;11.00;;
12980;SDS011;6555;50.468;8.480;2022-12-18T20:35:52;17.50;;;10.97;;
12980;SDS011;6555;50.468;8.480;2022-12-18T20:40:58;23.53;;;15.30;;
12980;SDS011;6555;50.468;8.480;2022-12-18T20:46:03;19.30;;;11.37;;
12980;SDS011;6555;50.468;8.480;2022-12-18T20:51:09;20.17;;;11.70;;
12980;SDS011;6555;50.468;8.480;2022-12-18T20:56:15;22.20;;;13.27;;
12980;SDS011;6555;50.468;8.480;2022-12-18T21:01:22;17.57;;;11.30;;
12980;SDS011;6555;50.468;8.480;2022-12-18T21:06:26;20.03;;;11.93;;
12980;SDS011;6555;50.468;8.480;2022-12-18T21:11:32;20.00;;;12.10;;
12980;SDS011;6555;50.468;8.480;2022-12-18T21:16:52;14.03;;;8.97;;
12980;SDS011;6555;50.468;8.480;2022-12-18T21:21:57;16.87;;;10.00;;
12980;SDS011;6555;50.468;8.480;2022-12-18T21:27:01;15.87;;;10.50;;
12980;SDS011;6555;50.468;8.480;2022-12-18T21:32:05;18.60;;;11.13;;
12980;SDS011;6555;50.468;8.480;2022-12-18T21:37:09;15.20;;;9.30;;
12980;SDS011;6555;50.468;8.480;2022-12-18T21:42:14;14.30;;;9.27;;
12980;SDS011;6555;50.468;8.480;2022-12-18T21:47:35;22.03;;;13.83;;
12980;SDS011;6555;50.468;8.480;2022-12-18T21:52:38;20.80;;;12.20;;
12980;SDS011;6555;50.468;8.480;2022-12-18T21:57:43;18.17;;;10.00;;
12980;SDS011;6555;50.468;8.480;2022-12-18T22:02:46;17.90;;;11.03;;
12980;SDS011;6555;50.468;8.480;2022-12-18T22:08:10;15.17;;;8.97;;
12980;SDS011;6555;50.468;8.480;2022-12-18T22:13:15;13.90;;;8.67;;
12980;SDS011;6555;50.468;8.480;2022-12-18T22:18:18;16.67;;;10.63;;
12980;SDS011;6555;50.468;8.480;2022-12-18T22:23:21;19.10;;;11.57;;
12980;SDS011;6555;50.468;8.480;2022-12-18T22:28:26;15.67;;;9.90;;
12980;SDS011;6555;50.468;8.480;2022-12-18T22:33:46;19.27;;;12.10;;
12980;SDS011;6555;50.468;8.480;2022-12-18T22:38:49;17.87;;;11.20;;
12980;SDS011;6555;50.468;8.480;2022-12-18T22:43:55;15.10;;;9.73;;
12980;SDS011;6555;50.468;8.480;2022-12-18T22:48:58;19.10;;;10.37;;
12980;SDS011;6555;50.468;8.480;2022-12-18T22:54:01;18.43;;;12.07;;
12980;SDS011;6555;50.468;8.480;2022-12-18T22:59:05;14.60;;;8.67;;
12980;SDS011;6555;50.468;8.480;2022-12-18T23:04:09;19.23;;;12.40;;
12980;SDS011;6555;50.468;8.480;2022-12-18T23:09:14;12.37;;;7.47;;
12980;SDS011;6555;50.468;8.480;2022-12-18T23:14:20;8.67;;;6.43;;
12980;SDS011;6555;50.468;8.480;2022-12-18T23:19:23;10.27;;;7.50;;
12980;SDS011;6555;50.468;8.480;2022-12-18T23:24:26;11.77;;;7.13;;
12980;SDS011;6555;50.468;8.480;2022-12-18T23:29:34;18.87;;;12.13;;
12980;SDS011;6555;50.468;8.480;2022-12-18T23:34:37;18.63;;;11.60;;
12980;SDS011;6555;50.468;8.480;2022-12-18T23:39:40;13.57;;;8.47;;
12980;SDS011;6555;50.468;8.480;2022-12-18T23:44:44;10.57;;;6.33;;
12980;SDS011;6555;50.468;8.480;2022-12-18T23:49:48;8.30;;;5.23;;
12980;SDS011;6555;50.468;8.480;2022-12-18T23:54:50;12.10;;;7.80;;
12980;SDS011;6555;50.468;8.480;2022-12-18T23:59:55;10.70;;;7.27;;
